Time;durP1;ratioP1;P1;durP2;ratioP2;P2;SDS_P1;SDS_P2;PMS_P1;PMS_P2;Temp;Humidity;BMP_temperature;BMP_pressure;BME280_temperature;BME280_humidity;BME280_pressure;Samples;Min_cycle;Max_cycle;Signal;HPM_P1;HPM_P2
2022/03/05 00:00:46;;;;;;;;;4.00;3.20;;;;;-0.05;62.47;100362.22;5096345;28;8968;-63
2022/03/05 00:03:16;;;;;;;;;7.40;6.20;;;;;-0.08;62.20;100358.84;5095999;28;8822;-63
2022/03/05 00:05:44;;;;;;;;;5.60;5.60;;;;;-0.12;62.51;100361.53;5096147;28;8872;-63
2022/03/05 00:08:12;;;;;;;;;9.00;7.00;;;;;-0.14;62.87;100352.03;5095519;28;8849;-63
2022/03/05 00:10:40;;;;;;;;;10.00;8.20;;;;;-0.14;62.60;100356.41;5095992;28;8822;-63
2022/03/05 00:13:08;;;;;;;;;9.00;9.00;;;;;-0.16;62.32;100366.06;5095157;28;8845;-63
2022/03/05 00:15:35;;;;;;;;;6.40;4.00;;;;;-0.20;62.43;100360.06;5095932;28;8842;-63
2022/03/05 00:18:03;;;;;;;;;6.40;6.40;;;;;-0.22;62.86;100356.66;5095650;28;8922;-63
2022/03/05 00:20:31;;;;;;;;;5.60;4.20;;;;;-0.27;62.76;100355.03;5095720;28;8956;-63
2022/03/05 00:22:59;;;;;;;;;5.40;5.20;;;;;-0.34;62.89;100367.47;5095808;28;8920;-63
2022/03/05 00:25:27;;;;;;;;;8.80;6.20;;;;;-0.38;62.46;100367.59;5094206;28;8856;-63
2022/03/05 00:27:54;;;;;;;;;8.60;7.00;;;;;-0.42;62.81;100361.59;5094948;28;8840;-63
2022/03/05 00:30:22;;;;;;;;;6.00;6.00;;;;;-0.45;63.02;100360.81;5095152;28;8881;-62
2022/03/05 00:32:50;;;;;;;;;10.20;9.20;;;;;-0.48;62.78;100363.53;5095239;28;8814;-62
2022/03/05 00:35:18;;;;;;;;;6.00;5.60;;;;;-0.50;63.14;100365.31;5095317;28;8956;-64
2022/03/05 00:37:45;;;;;;;;;12.00;6.60;;;;;-0.53;62.92;100360.19;5095305;28;8976;-63
2022/03/05 00:40:13;;;;;;;;;6.80;6.20;;;;;-0.57;63.07;100371.63;5095333;28;8857;-62
2022/03/05 00:42:41;;;;;;;;;5.60;4.40;;;;;-0.61;62.70;100367.41;5095554;28;8825;-63
2022/03/05 00:45:08;;;;;;;;;7.80;6.40;;;;;-0.65;62.77;100357.91;5095088;28;8992;-62
2022/03/05 00:47:36;;;;;;;;;6.00;6.00;;;;;-0.69;63.11;100362.38;5095522;28;8826;-63
2022/03/05 00:50:04;;;;;;;;;6.20;6.20;;;;;-0.69;63.00;100361.53;5095231;28;9512;-63
2022/03/05 00:52:32;;;;;;;;;7.40;6.40;;;;;-0.71;63.01;100363.34;5094974;28;8850;-62
2022/03/05 00:54:59;;;;;;;;;3.60;2.80;;;;;-0.74;62.93;100359.03;5094622;28;8964;-64
2022/03/05 00:57:27;;;;;;;;;1.00;1.00;;;;;-0.76;63.18;100354.75;5095235;28;8856;-63
2022/03/05 00:59:55;;;;;;;;;6.40;6.40;;;;;-0.78;63.21;100357.38;5095060;28;8830;-62
2022/03/05 01:02:23;;;;;;;;;6.00;5.60;;;;;-0.80;63.47;100353.97;5095107;28;8840;-64
2022/03/05 01:04:51;;;;;;;;;6.20;6.20;;;;;-0.81;63.04;100356.63;5095539;28;8956;-63
2022/03/05 01:07:19;;;;;;;;;3.00;3.00;;;;;-0.82;63.44;100352.28;5094571;28;8833;-63
2022/03/05 01:09:47;;;;;;;;;6.00;6.00;;;;;-0.83;63.53;100358.44;5095111;28;8826;-64
2022/03/05 01:12:14;;;;;;;;;4.00;3.00;;;;;-0.84;63.07;100357.56;5094157;28;8841;-63
2022/03/05 01:14:42;;;;;;;;;4.80;3.80;;;;;-0.85;62.98;100352.41;5094233;28;8834;-63
2022/03/05 01:17:11;;;;;;;;;9.40;7.00;;;;;-0.89;62.88;100354.22;5094612;28;8826;-63
2022/03/05 01:19:39;;;;;;;;;5.00;4.80;;;;;-0.89;63.12;100355.97;5094720;28;8964;-63
2022/03/05 01:22:06;;;;;;;;;4.00;4.00;;;;;-0.92;63.06;100351.69;5094814;28;8927;-63
2022/03/05 01:24:34;;;;;;;;;9.20;8.40;;;;;-0.92;63.07;100353.44;5094107;28;8915;-62
2022/03/05 01:27:04;;;;;;;;;4.80;4.80;;;;;-0.94;63.35;100350.00;5093919;28;8864;-63
2022/03/05 01:29:32;;;;;;;;;4.00;3.20;;;;;-0.95;63.46;100358.75;5094939;28;8846;-63
2022/03/05 01:32:00;;;;;;;;;12.00;8.20;;;;;-0.98;63.18;100353.59;5093972;28;8972;-63
2022/03/05 01:34:28;;;;;;;;;9.20;9.00;;;;;-0.99;63.16;100354.50;5094643;28;8968;-62
2022/03/05 01:36:55;;;;;;;;;7.00;7.00;;;;;-1.00;62.82;100358.03;5094314;28;8964;-63
2022/03/05 01:39:23;;;;;;;;;9.40;9.00;;;;;-1.01;62.95;100358.94;5094517;28;8826;-63
2022/03/05 01:41:54;;;;;;;;;9.60;9.60;;;;;-1.03;63.11;100361.56;5094334;28;8830;-64
2022/03/05 01:44:22;;;;;;;;;7.40;6.20;;;;;-1.04;62.98;100348.53;5094545;28;8907;-63
2022/03/05 01:46:50;;;;;;;;;4.40;4.40;;;;;-1.06;63.33;100355.56;5094316;28;8822;-64
2022/03/05 01:49:18;;;;;;;;;4.40;3.80;;;;;-1.09;63.60;100350.41;5094198;28;8850;-63
2022/03/05 01:51:46;;;;;;;;;6.80;5.60;;;;;-1.12;63.48;100346.16;5093494;28;8854;-63
2022/03/05 01:54:14;;;;;;;;;3.20;1.00;;;;;-1.13;63.15;100339.19;5094379;28;8842;-64
2022/03/05 01:56:41;;;;;;;;;5.60;5.20;;;;;-1.13;63.39;100340.97;5094450;28;8838;-63
2022/03/05 01:59:09;;;;;;;;;11.80;9.80;;;;;-1.13;63.29;100343.56;5094374;28;9507;-62
2022/03/05 02:01:37;;;;;;;;;5.20;5.20;;;;;-1.15;62.86;100327.94;5093951;28;8826;-62
2022/03/05 02:04:05;;;;;;;;;3.00;3.00;;;;;-1.15;63.27;100340.97;5094585;28;8830;-62
2022/03/05 02:06:33;;;;;;;;;7.40;7.40;;;;;-1.16;63.12;100333.22;5093448;28;8834;-62
2022/03/05 02:09:01;;;;;;;;;1.00;1.00;;;;;-1.17;62.90;100331.47;5094408;28;8842;-62
2022/03/05 02:11:28;;;;;;;;;9.00;6.20;;;;;-1.20;63.07;100332.44;5094068;28;8837;-62
2022/03/05 02:13:56;;;;;;;;;1.80;1.80;;;;;-1.20;63.39;100331.56;5093505;28;8918;-63
2022/03/05 02:16:24;;;;;;;;;4.40;4.40;;;;;-1.21;63.28;100328.06;5094177;28;8826;-63
2022/03/05 02:18:52;;;;;;;;;6.80;6.40;;;;;-1.22;63.26;100328.97;5093544;28;8845;-62
2022/03/05 02:21:20;;;;;;;;;7.80;7.40;;;;;-1.24;63.37;100320.34;5093546;28;8834;-63
2022/03/05 02:23:47;;;;;;;;;7.40;7.00;;;;;-1.28;62.80;100329.16;5093497;28;8811;-63
2022/03/05 02:26:15;;;;;;;;;1.00;0.80;;;;;-1.34;63.75;100329.31;5093369;28;8838;-63
2022/03/05 02:28:43;;;;;;;;;4.60;4.60;;;;;-1.39;63.97;100327.69;5091462;28;8915;-62
2022/03/05 02:31:11;;;;;;;;;3.60;2.60;;;;;-1.44;63.85;100327.81;5092783;28;9484;-62
2022/03/05 02:33:38;;;;;;;;;9.40;8.20;;;;;-1.48;63.80;100336.63;5093271;28;9611;-63
2022/03/05 02:36:06;;;;;;;;;4.00;3.00;;;;;-1.50;63.31;100334.97;5093600;28;8834;-62
2022/03/05 02:38:35;;;;;;;;;7.80;7.00;;;;;-1.53;63.73;100328.06;5092972;28;8976;-63
2022/03/05 02:41:02;;;;;;;;;6.60;6.60;;;;;-1.54;63.67;100330.69;5093257;28;8960;-62
2022/03/05 02:43:30;;;;;;;;;4.00;3.00;;;;;-1.57;63.78;100330.78;5093914;28;8960;-62
2022/03/05 02:45:58;;;;;;;;;8.60;8.20;;;;;-1.57;63.53;100325.56;5094942;28;8820;-63
2022/03/05 02:48:26;;;;;;;;;4.80;4.80;;;;;-1.56;64.07;100332.50;5101238;28;8866;-63
2022/03/05 02:50:54;;;;;;;;;6.00;6.00;;;;;-1.56;63.88;100327.28;5098430;28;8845;-63
2022/03/05 02:53:22;;;;;;;;;5.60;4.80;;;;;-1.57;64.31;100325.56;5098448;28;9565;-62
2022/03/05 02:55:50;;;;;;;;;2.60;1.00;;;;;-1.57;63.66;100330.78;5099380;28;9527;-63
2022/03/05 02:58:18;;;;;;;;;10.00;9.00;;;;;-1.57;63.55;100330.78;5118528;28;8929;-63
2022/03/05 03:00:45;;;;;;;;;3.60;3.20;;;;;-1.56;63.84;100330.75;5118416;28;8847;-62
2022/03/05 03:03:13;;;;;;;;;7.80;6.40;;;;;-1.56;64.06;100329.88;5118706;28;8831;-62
2022/03/05 03:05:41;;;;;;;;;0.00;0.00;;;;;-1.60;63.69;100325.66;5119185;28;9716;-63
2022/03/05 03:08:09;;;;;;;;;7.20;7.20;;;;;-1.63;63.60;100326.56;5115731;28;8835;-62
2022/03/05 03:10:37;;;;;;;;;4.20;3.80;;;;;-1.66;63.79;100323.19;5118603;28;8974;-63
2022/03/05 03:13:05;;;;;;;;;6.00;6.00;;;;;-1.71;64.31;100320.69;5116405;28;9465;-62
2022/03/05 03:15:33;;;;;;;;;3.60;3.00;;;;;-1.71;64.43;100323.31;5117988;28;8917;-63
2022/03/05 03:18:00;;;;;;;;;7.00;5.40;;;;;-1.71;64.18;100325.03;5118485;28;8827;-64
2022/03/05 03:20:28;;;;;;;;;4.40;4.40;;;;;-1.72;63.56;100320.72;5118191;28;8970;-63
2022/03/05 03:22:56;;;;;;;;;6.80;6.80;;;;;-1.74;63.76;100328.56;5098163;28;8838;-62
2022/03/05 03:25:23;;;;;;;;;7.80;7.80;;;;;-1.73;63.69;100319.00;5098337;28;8964;-62
2022/03/05 03:27:51;;;;;;;;;4.00;4.00;;;;;-1.72;64.35;100320.72;5097817;28;8842;-63
2022/03/05 03:30:19;;;;;;;;;6.40;6.20;;;;;-1.72;64.00;100318.97;5097611;28;8837;-63
2022/03/05 03:32:47;;;;;;;;;4.80;4.80;;;;;-1.71;63.72;100318.09;5115746;28;8832;-63
2022/03/05 03:35:14;;;;;;;;;7.00;7.00;;;;;-1.70;63.49;100321.53;5117751;28;8839;-63
2022/03/05 03:37:42;;;;;;;;;1.00;0.00;;;;;-1.71;63.94;100318.09;5117736;28;8846;-62
2022/03/05 03:40:10;;;;;;;;;6.20;6.20;;;;;-1.71;64.16;100320.69;5117921;28;8962;-62
2022/03/05 03:42:38;;;;;;;;;8.20;5.60;;;;;-1.71;63.66;100320.69;5100389;28;8829;-63
2022/03/05 03:45:06;;;;;;;;;3.80;2.20;;;;;-1.71;63.95;100320.69;5097803;28;8853;-63
2022/03/05 03:47:34;;;;;;;;;4.20;3.80;;;;;-1.73;64.10;100322.50;5097938;28;8830;-63
2022/03/05 03:50:02;;;;;;;;;2.20;0.60;;;;;-1.75;64.11;100320.81;5097650;28;8981;-63
2022/03/05 03:52:29;;;;;;;;;4.80;3.80;;;;;-1.76;63.55;100316.47;5111314;28;8840;-62
2022/03/05 03:54:57;;;;;;;;;3.60;3.60;;;;;-1.78;64.02;100315.63;5117905;28;8827;-65
2022/03/05 03:57:25;;;;;;;;;8.20;6.40;;;;;-1.80;64.18;100317.44;5117000;28;8962;-63
2022/03/05 03:59:53;;;;;;;;;0.20;0.20;;;;;-1.80;63.87;100325.25;5117736;28;9477;-63
2022/03/05 04:02:20;;;;;;;;;9.40;7.60;;;;;-1.82;64.17;100324.44;5102633;28;8836;-62
2022/03/05 04:04:48;;;;;;;;;10.20;8.00;;;;;-1.83;63.69;100328.81;5096865;28;8900;-62
2022/03/05 04:10:02;;;;;;;;;6.20;6.20;;;;;-1.83;63.77;100327.97;5096885;28;8829;-63
2022/03/05 04:12:29;;;;;;;;;6.00;3.80;;;;;-1.84;63.88;100328.81;5111088;28;8824;-62
2022/03/05 04:14:57;;;;;;;;;5.80;5.60;;;;;-1.85;64.09;100337.56;5117304;28;8828;-62
2022/03/05 04:17:24;;;;;;;;;2.20;2.20;;;;;-1.86;63.83;100328.00;5117526;28;8831;-63
2022/03/05 04:19:53;;;;;;;;;3.00;3.00;;;;;-1.85;64.15;100328.00;5109246;28;8844;-63
2022/03/05 04:22:20;;;;;;;;;3.20;3.00;;;;;-1.84;64.18;100328.81;5097086;28;8857;-64
2022/03/05 04:24:48;;;;;;;;;7.80;6.40;;;;;-1.86;63.95;100328.88;5095310;28;9039;-63
2022/03/05 04:27:16;;;;;;;;;3.80;3.40;;;;;-1.84;64.22;100339.25;5094925;28;8846;-63
2022/03/05 04:29:44;;;;;;;;;3.80;3.80;;;;;-1.84;63.74;100337.53;5109453;28;8831;-62
2022/03/05 04:32:11;;;;;;;;;6.00;4.00;;;;;-1.85;63.96;100338.41;5116651;28;8808;-63
2022/03/05 04:34:39;;;;;;;;;5.20;5.00;;;;;-1.86;63.92;100339.31;5116550;28;9535;-63
2022/03/05 04:37:07;;;;;;;;;4.80;4.00;;;;;-1.86;63.59;100339.31;5117102;28;9851;-63
2022/03/05 04:39:35;;;;;;;;;1.80;0.80;;;;;-1.86;63.90;100343.66;5105280;28;8810;-63
2022/03/05 04:42:03;;;;;;;;;3.60;3.60;;;;;-1.86;64.09;100343.66;5096185;28;8860;-64
2022/03/05 04:44:31;;;;;;;;;1.80;0.60;;;;;-1.86;64.16;100343.66;5095918;28;8833;-63
2022/03/05 04:46:59;;;;;;;;;2.60;2.60;;;;;-1.86;64.09;100348.88;5096269;28;8826;-63
2022/03/05 04:49:27;;;;;;;;;3.80;3.80;;;;;-1.87;63.76;100339.34;5105815;28;8843;-62
2022/03/05 04:51:54;;;;;;;;;4.00;3.60;;;;;-1.89;64.03;100341.97;5116546;28;8848;-63
2022/03/05 04:54:24;;;;;;;;;9.40;7.20;;;;;-1.89;63.91;100352.41;5116253;28;9505;-63
2022/03/05 04:56:51;;;;;;;;;8.60;4.40;;;;;-1.90;64.03;100348.09;5116698;28;8831;-63
2022/03/05 04:59:19;;;;;;;;;4.40;3.60;;;;;-1.91;64.23;100354.22;5107530;28;8810;-64
2022/03/05 05:01:47;;;;;;;;;5.80;4.40;;;;;-1.94;63.94;100351.69;5095708;28;8849;-66
2022/03/05 05:04:15;;;;;;;;;6.60;6.00;;;;;-1.95;64.03;100342.16;5096463;28;8842;-63
2022/03/05 05:06:43;;;;;;;;;9.00;6.80;;;;;-1.97;64.06;100354.34;5096049;28;8833;-64
2022/03/05 05:09:11;;;;;;;;;6.00;3.20;;;;;-1.95;64.09;100359.53;5103076;28;8847;-63
2022/03/05 05:11:39;;;;;;;;;10.20;6.60;;;;;-1.96;64.11;100352.59;5115429;28;8820;-63
2022/03/05 05:14:07;;;;;;;;;7.80;4.40;;;;;-1.97;64.08;100346.53;5115659;28;8863;-62
2022/03/05 05:16:34;;;;;;;;;5.20;4.80;;;;;-1.98;64.33;100343.97;5115956;28;8840;-62
2022/03/05 05:21:44;;;;;;;;;3.40;3.00;;;;;-2.00;64.20;100353.56;5082131;28;9559;-63
2022/03/05 05:24:11;;;;;;;;;7.00;6.40;;;;;-2.01;63.79;100364.88;5095429;28;8876;-62
2022/03/05 05:26:39;;;;;;;;;10.60;9.20;;;;;-2.01;64.21;100357.06;5095337;28;8846;-62
2022/03/05 05:29:07;;;;;;;;;6.40;3.20;;;;;-2.00;64.62;100361.38;5101078;28;8839;-63
2022/03/05 05:31:55;;;;;;;;;6.40;4.00;;;;;-2.01;64.14;100360.53;5115365;28;8828;-62
2022/03/05 05:34:23;;;;;;;;;8.00;6.40;;;;;-1.99;64.38;100365.75;5115990;28;8937;-63
2022/03/05 05:36:51;;;;;;;;;4.00;4.00;;;;;-1.99;64.06;100368.34;5116024;28;9692;-63
2022/03/05 05:39:19;;;;;;;;;1.00;1.00;;;;;-1.99;64.03;100363.97;5107585;28;8834;-63
2022/03/05 05:41:47;;;;;;;;;4.80;4.80;;;;;-1.98;64.09;100359.63;5094994;28;8862;-63
2022/03/05 05:44:14;;;;;;;;;4.00;4.00;;;;;-2.00;63.92;100362.25;5095511;28;9476;-64
2022/03/05 05:46:42;;;;;;;;;4.40;4.40;;;;;-2.00;63.92;100361.38;5095008;28;8845;-63
2022/03/05 05:49:10;;;;;;;;;6.80;6.40;;;;;-2.00;64.40;100358.78;5099960;28;8954;-63
2022/03/05 05:51:38;;;;;;;;;9.40;7.80;;;;;-1.99;64.25;100360.53;5095416;28;8846;-64
2022/03/05 05:54:05;;;;;;;;;7.20;6.40;;;;;-2.00;63.71;100351.81;5094870;28;8864;-62
2022/03/05 05:56:33;;;;;;;;;6.60;6.00;;;;;-1.97;64.23;100356.13;5095065;28;9529;-63
2022/03/05 05:59:01;;;;;;;;;5.20;3.80;;;;;-1.97;64.20;100350.91;5094854;28;9484;-63
2022/03/05 06:01:29;;;;;;;;;4.00;3.60;;;;;-1.97;64.15;100356.13;5112191;28;8816;-63
2022/03/05 06:03:57;;;;;;;;;1.00;1.00;;;;;-1.96;64.13;100357.81;5115181;28;8859;-63
2022/03/05 06:06:24;;;;;;;;;1.80;1.80;;;;;-1.95;64.14;100357.81;5114645;28;8843;-63
2022/03/05 06:08:53;;;;;;;;;4.80;4.00;;;;;-1.95;64.19;100362.16;5114793;28;9577;-63
2022/03/05 06:11:20;;;;;;;;;6.40;6.20;;;;;-1.97;63.96;100361.34;5097919;28;8822;-62
2022/03/05 06:13:48;;;;;;;;;3.00;3.00;;;;;-1.99;64.12;100353.53;5095168;28;8865;-63
2022/03/05 06:16:16;;;;;;;;;5.80;4.60;;;;;-1.97;64.01;100361.34;5094859;28;8838;-62
2022/03/05 06:18:44;;;;;;;;;6.80;5.60;;;;;-1.98;64.08;100354.41;5094738;28;8894;-63
2022/03/05 06:21:11;;;;;;;;;6.00;4.40;;;;;-1.95;64.06;100352.59;5094204;28;8985;-63
2022/03/05 06:23:39;;;;;;;;;4.60;4.20;;;;;-1.93;64.41;100357.75;5113836;28;8822;-63
2022/03/05 06:26:07;;;;;;;;;0.00;0.00;;;;;-1.92;64.03;100351.63;5119096;28;8832;-63
2022/03/05 06:28:35;;;;;;;;;3.40;3.40;;;;;-1.89;63.81;100359.41;5119636;28;8828;-63
2022/03/05 06:31:04;;;;;;;;;7.20;5.20;;;;;-1.86;64.41;100361.94;5119312;28;8958;-63
2022/03/05 06:33:31;;;;;;;;;9.40;5.60;;;;;-1.83;64.40;100360.09;5119039;28;8857;-63
2022/03/05 06:35:59;;;;;;;;;4.00;3.00;;;;;-1.79;64.10;100366.13;5117541;28;8852;-63
2022/03/05 06:38:28;;;;;;;;;1.80;1.00;;;;;-1.74;63.66;100361.66;5098801;28;8860;-63
2022/03/05 06:40:56;;;;;;;;;6.40;6.20;;;;;-1.70;63.50;100368.50;5098640;28;8968;-65
2022/03/05 06:43:23;;;;;;;;;6.40;6.20;;;;;-1.64;63.78;100366.63;5097655;28;8826;-63
2022/03/05 06:45:51;;;;;;;;;6.20;6.20;;;;;-1.59;63.37;100361.28;5098462;28;8956;-64
2022/03/05 06:48:19;;;;;;;;;5.40;5.00;;;;;-1.55;63.32;100368.13;5098183;28;8829;-63
2022/03/05 06:50:46;;;;;;;;;9.40;9.20;;;;;-1.49;63.47;100368.00;5098123;28;9803;-63
2022/03/05 06:53:14;;;;;;;;;4.60;3.40;;;;;-1.42;63.08;100366.94;5109296;28;8839;-63
2022/03/05 06:55:42;;;;;;;;;7.00;5.20;;;;;-1.38;63.27;100366.00;5117691;28;8971;-63
2022/03/05 06:58:09;;;;;;;;;4.00;3.80;;;;;-1.34;62.72;100371.09;5118710;28;8840;-63
2022/03/05 07:00:37;;;;;;;;;3.80;3.80;;;;;-1.27;62.94;100377.00;5117763;28;8906;-62
2022/03/05 07:03:05;;;;;;;;;5.60;4.40;;;;;-1.20;62.45;100375.97;5118392;28;8950;-63
2022/03/05 07:05:35;;;;;;;;;9.20;6.80;;;;;-1.15;62.79;100376.72;5118688;28;8840;-64
2022/03/05 07:08:02;;;;;;;;;6.20;4.00;;;;;-1.09;62.77;100380.00;5118011;28;9465;-63
2022/03/05 07:10:30;;;;;;;;;4.40;4.00;;;;;-1.04;62.43;100378.16;5111278;28;8822;-63
2022/03/05 07:12:58;;;;;;;;;7.00;6.40;;;;;-0.97;62.60;100379.72;5098121;28;8845;-63
2022/03/05 07:15:26;;;;;;;;;4.00;4.00;;;;;-0.90;62.34;100375.16;5097691;28;8846;-63
2022/03/05 07:17:53;;;;;;;;;6.00;5.20;;;;;-0.82;62.81;100386.28;5097503;28;8829;-63
2022/03/05 07:20:21;;;;;;;;;4.80;4.80;;;;;-0.74;62.33;100385.19;5097427;28;9578;-63
2022/03/05 07:22:49;;;;;;;;;4.00;3.60;;;;;-0.62;61.74;100391.81;5097445;28;9560;-64
2022/03/05 07:25:17;;;;;;;;;6.80;4.00;;;;;-0.51;61.99;100392.38;5097064;28;8860;-63
2022/03/05 07:27:46;;;;;;;;;3.40;3.40;;;;;-0.42;61.91;100398.22;5097157;28;8834;-63
2022/03/05 07:30:14;;;;;;;;;3.00;3.00;;;;;-0.31;62.21;100396.13;5103861;28;8801;-62
2022/03/05 07:32:42;;;;;;;;;4.80;4.80;;;;;-0.16;61.72;100400.09;5117331;28;8839;-64
2022/03/05 07:35:09;;;;;;;;;4.40;4.00;;;;;0.03;60.72;100391.63;5117233;28;8978;-63
2022/03/05 07:37:37;;;;;;;;;6.40;6.20;;;;;0.26;60.70;100392.66;5117997;28;8897;-63
2022/03/05 07:40:05;;;;;;;;;6.60;6.40;;;;;0.53;60.60;100394.41;5117364;28;8831;-64
2022/03/05 07:42:33;;;;;;;;;7.40;7.20;;;;;0.83;60.70;100388.16;5117208;28;8842;-64
2022/03/05 07:45:00;;;;;;;;;5.20;5.20;;;;;1.13;60.11;100387.13;5117163;28;8865;-63
2022/03/05 07:47:28;;;;;;;;;7.40;7.00;;;;;1.44;59.69;100382.50;5117278;28;8836;-63
2022/03/05 07:49:58;;;;;;;;;11.00;10.60;;;;;1.68;59.84;100386.84;5116747;28;8833;-63
2022/03/05 07:52:25;;;;;;;;;9.80;9.20;;;;;1.86;59.66;100390.56;5105683;28;8845;-63
2022/03/05 07:54:53;;;;;;;;;6.20;5.80;;;;;2.16;59.23;100385.03;5095812;28;8850;-63
2022/03/05 07:57:21;;;;;;;;;16.00;9.40;;;;;2.53;59.16;100384.41;5096634;28;8830;-62
2022/03/05 07:59:49;;;;;;;;;8.60;6.80;;;;;2.87;58.46;100384.78;5096966;28;8856;-62
2022/03/05 08:02:36;;;;;;;;;15.00;12.40;;;;;3.20;58.08;100394.75;5096242;28;8860;-62
2022/03/05 08:05:04;;;;;;;;;11.00;9.80;;;;;3.43;58.23;100393.72;5096200;28;8830;-63
2022/03/05 08:07:32;;;;;;;;;8.60;7.00;;;;;3.63;57.68;100399.81;5095538;28;8919;-62
2022/03/05 08:10:00;;;;;;;;;8.60;8.60;;;;;3.82;57.95;100396.31;5096005;28;8826;-63
2022/03/05 08:12:28;;;;;;;;;24.80;17.40;;;;;4.01;57.30;100391.06;5096392;28;8879;-63
2022/03/05 08:14:56;;;;;;;;;19.40;15.60;;;;;4.21;57.34;100397.13;5097423;28;8817;-63
2022/03/05 08:17:24;;;;;;;;;7.20;6.40;;;;;4.46;56.76;100394.16;5116048;28;8844;-63
2022/03/05 08:19:52;;;;;;;;;9.20;7.00;;;;;4.76;57.08;100395.34;5116132;28;8820;-65
2022/03/05 08:22:21;;;;;;;;;9.60;9.40;;;;;5.02;56.17;100387.00;5116603;28;8852;-63
2022/03/05 08:24:49;;;;;;;;;7.80;7.00;;;;;5.17;56.34;100384.44;5116252;28;8850;-63
2022/03/05 08:27:16;;;;;;;;;9.60;9.60;;;;;5.23;56.18;100384.13;5116480;28;8828;-63
2022/03/05 08:29:44;;;;;;;;;9.60;8.80;;;;;5.24;55.70;100391.09;5116244;28;8836;-63
2022/03/05 08:32:12;;;;;;;;;9.00;7.00;;;;;5.21;56.27;100385.13;5116214;28;8962;-63
2022/03/05 08:34:40;;;;;;;;;10.80;8.60;;;;;5.17;55.84;100389.69;5116084;28;8875;-64
2022/03/05 08:37:07;;;;;;;;;13.80;11.20;;;;;5.13;56.24;100388.16;5116355;28;8835;-63
2022/03/05 08:39:35;;;;;;;;;12.00;11.20;;;;;5.10;55.90;100388.31;5115646;28;8827;-63
2022/03/05 08:42:04;;;;;;;;;10.60;9.40;;;;;5.18;56.30;100396.69;5101653;28;9543;-63
2022/03/05 08:44:31;;;;;;;;;9.00;9.00;;;;;5.39;55.86;100384.22;5095210;28;8854;-63
2022/03/05 08:47:00;;;;;;;;;9.60;8.20;;;;;5.69;55.25;100382.59;5094452;28;8902;-64
2022/03/05 08:49:27;;;;;;;;;7.00;6.00;;;;;5.97;54.75;100382.84;5095334;28;8960;-63
2022/03/05 08:51:55;;;;;;;;;13.80;10.80;;;;;6.20;53.92;100385.97;5095182;28;8876;-63
2022/03/05 08:54:22;;;;;;;;;7.80;7.80;;;;;6.41;54.33;100379.50;5095762;28;8930;-64
2022/03/05 08:56:50;;;;;;;;;6.00;6.00;;;;;6.69;53.72;100379.63;5094783;28;9495;-63
2022/03/05 08:59:18;;;;;;;;;8.60;6.20;;;;;7.05;53.33;100374.03;5094234;28;8856;-63
2022/03/05 09:01:46;;;;;;;;;6.20;4.80;;;;;7.42;53.23;100377.06;5094137;28;8842;-64
2022/03/05 09:04:14;;;;;;;;;9.60;7.40;;;;;7.76;52.67;100374.91;5093670;28;8887;-63
2022/03/05 09:06:42;;;;;;;;;10.80;10.80;;;;;8.00;52.20;100381.34;5092474;28;8846;-63
2022/03/05 09:09:09;;;;;;;;;9.40;8.60;;;;;8.16;51.87;100371.53;5100794;28;8856;-63
2022/03/05 09:11:38;;;;;;;;;8.60;7.80;;;;;8.22;51.88;100373.78;5114390;28;8831;-64
2022/03/05 09:14:05;;;;;;;;;11.20;9.80;;;;;8.22;52.02;100363.19;5114482;28;8870;-64
2022/03/05 09:16:33;;;;;;;;;9.40;7.20;;;;;8.20;51.88;100373.03;5089514;28;9477;-63
2022/03/05 09:19:01;;;;;;;;;3.00;3.00;;;;;8.15;52.10;100367.13;5075669;28;8835;-63
2022/03/05 09:21:29;;;;;;;;;12.60;12.00;;;;;8.18;51.95;100366.97;5075909;28;8847;-63
2022/03/05 09:23:56;;;;;;;;;8.20;5.80;;;;;8.21;51.88;100352.69;5038534;28;8962;-63
2022/03/05 09:26:25;;;;;;;;;12.60;11.20;;;;;8.28;51.76;100354.00;5065451;28;8828;-65
2022/03/05 09:28:52;;;;;;;;;12.40;10.40;;;;;8.28;51.61;100351.34;5099219;28;8914;-64
2022/03/05 09:31:20;;;;;;;;;14.60;12.60;;;;;8.25;51.46;100352.41;5114806;28;8843;-64
2022/03/05 09:33:48;;;;;;;;;13.20;10.80;;;;;8.24;52.08;100363.09;5115170;28;8848;-64
2022/03/05 09:36:16;;;;;;;;;11.00;9.80;;;;;8.20;51.92;100351.81;5114792;28;8846;-63
2022/03/05 09:38:44;;;;;;;;;9.60;9.00;;;;;8.18;51.63;100359.00;5106249;28;8822;-63
2022/03/05 09:41:11;;;;;;;;;15.80;13.80;;;;;8.19;51.82;100357.22;5094218;28;8830;-64
2022/03/05 09:43:43;;;;;;;;;9.20;9.20;;;;;8.19;51.81;100358.09;5094175;28;8834;-63
2022/03/05 09:46:11;;;;;;;;;13.60;12.40;;;;;8.21;52.07;100360.66;5094120;28;9823;-63
2022/03/05 09:48:38;;;;;;;;;11.80;9.20;;;;;8.23;51.79;100356.97;5094297;28;8971;-65
2022/03/05 09:51:06;;;;;;;;;12.80;11.60;;;;;8.29;51.65;100353.88;5093853;28;8868;-63
2022/03/05 09:53:34;;;;;;;;;12.00;9.00;;;;;8.39;51.50;100352.38;5094389;28;8860;-63
2022/03/05 09:56:02;;;;;;;;;9.40;8.80;;;;;8.49;51.19;100355.25;5094074;28;8862;-63
2022/03/05 09:58:47;;;;;;;;;14.20;10.00;;;;;8.54;51.53;100362.00;5093342;28;8845;-62
2022/03/05 10:01:15;;;;;;;;;8.20;6.40;;;;;8.63;51.04;100358.75;5093665;28;8848;-63
2022/03/05 10:03:42;;;;;;;;;9.00;8.00;;;;;8.76;50.92;100353.47;5093679;28;8853;-63
2022/03/05 10:06:10;;;;;;;;;6.00;4.80;;;;;8.91;50.64;100353.34;5093097;28;8818;-63
2022/03/05 10:08:38;;;;;;;;;13.60;11.00;;;;;9.09;50.45;100349.44;5100583;28;8832;-63
2022/03/05 10:11:09;;;;;;;;;9.00;7.40;;;;;9.33;49.79;100346.94;5114539;28;8832;-63
2022/03/05 10:13:36;;;;;;;;;8.60;7.40;;;;;9.68;49.24;100346.22;5114203;28;8828;-67
2022/03/05 10:16:04;;;;;;;;;11.40;11.20;;;;;10.28;48.55;100344.56;5113317;28;8824;-63
2022/03/05 10:18:33;;;;;;;;;9.20;6.80;;;;;11.14;46.89;100349.63;5113833;28;8836;-64
2022/03/05 10:21:00;;;;;;;;;6.33;6.33;;;;;12.19;44.66;100328.84;5113850;28;8836;-64
2022/03/05 10:23:30;;;;;;;;;7.00;6.75;;;;;13.18;43.56;100330.41;5113925;28;8836;-65
2022/03/05 10:25:58;;;;;;;;;6.25;6.25;;;;;14.06;42.41;100319.97;5114249;28;8851;-65
2022/03/05 10:28:26;;;;;;;;;8.50;8.50;;;;;14.93;41.38;100317.38;5113577;28;8832;-65
2022/03/05 10:30:53;;;;;;;;;9.00;9.00;;;;;15.93;40.46;100323.03;5114464;28;8836;-65
2022/03/05 10:33:21;;;;;;;;;10.00;9.25;;;;;16.78;38.61;100319.13;5113930;28;8854;-64
2022/03/05 10:35:49;;;;;;;;;9.25;9.25;;;;;17.15;38.40;100311.75;5112863;28;8846;-66
2022/03/05 10:38:17;;;;;;;;;9.75;9.75;;;;;17.56;37.29;100311.97;5109486;28;9628;-64
2022/03/05 10:40:45;;;;;;;;;13.00;12.00;;;;;17.99;37.44;100314.59;5092946;28;8842;-64
2022/03/05 10:43:13;;;;;;;;;10.50;9.75;;;;;18.06;36.81;100310.25;5093401;28;8876;-64
2022/03/05 10:45:40;;;;;;;;;12.25;10.00;;;;;18.02;36.69;100319.69;5092980;28;8842;-63
2022/03/05 10:48:08;;;;;;;;;12.00;12.00;;;;;17.99;37.10;100311.06;5093182;28;8840;-64
2022/03/05 10:50:40;;;;;;;;;6.75;6.00;;;;;18.20;36.84;100312.34;5093782;28;8837;-64
2022/03/05 10:53:07;;;;;;;;;11.75;9.75;;;;;18.52;36.65;100307.09;5093272;28;8842;-64
2022/03/05 10:55:35;;;;;;;;;8.50;8.50;;;;;19.02;36.07;100304.34;5093448;28;8822;-64
2022/03/05 10:58:03;;;;;;;;;13.50;12.00;;;;;19.47;35.11;100307.44;5092743;28;8845;-63
2022/03/05 11:00:31;;;;;;;;;17.25;16.00;;;;;19.86;34.25;100301.16;5092540;28;8852;-64
2022/03/05 11:03:00;;;;;;;;;12.60;11.20;;;;;20.14;33.78;100298.91;5092869;28;8918;-63
2022/03/05 11:05:28;;;;;;;;;17.00;15.80;;;;;20.47;33.68;100301.31;5092435;28;8911;-64
2022/03/05 11:07:59;;;;;;;;;14.40;13.80;;;;;20.53;33.25;100299.75;5095214;28;8841;-66
2022/03/05 11:10:29;;;;;;;;;12.20;12.00;;;;;20.47;33.14;100292.38;5114000;28;9770;-63
2022/03/05 11:12:59;;;;;;;;;19.40;16.00;;;;;20.78;32.84;100291.34;5117321;28;8851;-63
2022/03/05 11:15:27;;;;;;;;;16.40;15.60;;;;;21.15;32.68;100292.31;5117678;28;8970;-64
2022/03/05 11:17:54;;;;;;;;;18.40;15.40;;;;;21.56;32.99;100285.50;5116854;28;8847;-64
2022/03/05 11:20:22;;;;;;;;;13.40;12.40;;;;;21.63;32.09;100288.34;5115729;28;9545;-64
2022/03/05 11:22:50;;;;;;;;;16.20;15.20;;;;;21.56;32.59;100288.22;5116460;28;8871;-64
2022/03/05 11:25:18;;;;;;;;;13.20;12.40;;;;;21.57;32.28;100289.09;5115841;28;8873;-66
2022/03/05 11:27:46;;;;;;;;;15.20;14.20;;;;;21.65;32.53;100292.56;5117315;28;8832;-64
2022/03/05 11:30:14;;;;;;;;;12.60;10.80;;;;;21.80;31.84;100288.00;5117593;28;8836;-64
2022/03/05 11:32:41;;;;;;;;;13.40;12.80;;;;;21.76;31.71;100281.28;5117030;28;8844;-64
2022/03/05 11:35:09;;;;;;;;;18.00;13.00;;;;;21.82;32.04;100290.56;5116886;28;8844;-64
2022/03/05 11:37:37;;;;;;;;;13.80;12.80;;;;;21.86;31.69;100287.28;5116044;28;8836;-64
2022/03/05 11:40:06;;;;;;;;;10.00;10.00;;;;;21.90;31.54;100287.75;5116135;28;8832;-65